Time;durP1;ratioP1;P1;durP2;ratioP2;P2;SDS_P1;SDS_P2;PMS_P1;PMS_P2;Temp;Humidity;BMP_temperature;BMP_pressure;BME280_temperature;BME280_humidity;BME280_pressure;Samples;Min_cycle;Max_cycle;Signal;HPM_P1;HPM_P2
2022/04/29 00:00:07;;;;;;;7.00;5.40;;;;;;;17.64;72.06;100323.00;5122477;27;20352;-73
2022/04/29 00:02:32;;;;;;;8.23;5.53;;;;;;;17.69;72.54;100315.28;5139311;27;20038;-71
2022/04/29 00:04:58;;;;;;;8.30;5.47;;;;;;;17.58;73.19;100316.56;5139722;27;20089;-72
2022/04/29 00:07:23;;;;;;;6.15;4.97;;;;;;;17.63;74.36;100311.47;5139143;27;20076;-74
2022/04/29 00:09:49;;;;;;;9.32;5.45;;;;;;;17.55;76.76;100317.78;5139081;27;20035;-72
2022/04/29 00:12:15;;;;;;;9.88;5.82;;;;;;;17.55;75.99;100311.59;5140362;27;20189;-71
2022/04/29 00:14:40;;;;;;;8.82;5.88;;;;;;;17.43;76.50;100307.78;5139628;27;20035;-71
2022/04/29 00:17:05;;;;;;;7.88;5.47;;;;;;;17.32;76.60;100301.09;5139172;27;20027;-71
2022/04/29 00:19:32;;;;;;;8.27;5.47;;;;;;;17.35;76.41;100311.44;5139897;27;20027;-72
2022/04/29 00:21:58;;;;;;;7.05;5.72;;;;;;;17.05;78.06;100296.53;5121583;27;20034;-71
2022/04/29 00:24:24;;;;;;;8.65;6.13;;;;;;;17.28;77.57;100313.22;5120600;27;20023;-73
2022/04/29 00:26:50;;;;;;;9.77;7.22;;;;;;;17.09;77.50;100303.97;5139360;27;20038;-71
2022/04/29 00:29:15;;;;;;;15.30;9.85;;;;;;;16.70;78.17;100296.34;5139489;27;20085;-73
2022/04/29 00:31:41;;;;;;;14.25;8.93;;;;;;;16.78;77.68;100279.38;5137848;27;20345;-72
2022/04/29 00:34:07;;;;;;;14.52;9.63;;;;;;;16.83;78.31;100288.47;5122299;27;20023;-74
2022/04/29 00:36:32;;;;;;;13.80;9.38;;;;;;;17.04;78.27;100290.34;5138256;27;20082;-74
2022/04/29 00:38:58;;;;;;;19.50;8.77;;;;;;;16.97;78.69;100283.28;5139510;27;20031;-71
2022/04/29 00:41:24;;;;;;;19.00;9.60;;;;;;;16.98;78.46;100282.25;5119444;27;20034;-73
2022/04/29 00:44:18;;;;;;;15.25;9.43;;;;;;;16.85;79.52;100289.13;5138015;27;20148;-73
2022/04/29 00:46:45;;;;;;;;;;;;;;;17.03;78.38;100294.03;5121343;27;20156;-73
2022/04/29 00:49:12;;;;;;;13.70;9.85;;;;;;;16.83;79.42;100283.13;5138139;27;20153;-71
2022/04/29 00:51:40;;;;;;;13.68;9.77;;;;;;;16.96;79.03;100295.81;5120850;27;20104;-71
2022/04/29 00:54:09;;;;;;;19.02;10.57;;;;;;;17.08;78.71;100291.63;5138408;27;20065;-71
2022/04/29 00:56:38;;;;;;;16.33;10.90;;;;;;;17.03;79.54;100291.38;5138080;27;20023;-73
2022/04/29 00:59:09;;;;;;;17.38;10.70;;;;;;;17.05;79.00;100286.66;5139452;27;20038;-71
2022/04/29 01:01:37;;;;;;;16.08;10.35;;;;;;;17.07;78.90;100283.78;5138423;27;20103;-73
2022/04/29 01:04:03;;;;;;;20.42;11.00;;;;;;;17.17;77.65;100276.25;5119174;27;20039;-73
2022/04/29 01:06:29;;;;;;;15.75;11.30;;;;;;;17.06;78.06;100280.28;5139602;27;20034;-73
2022/04/29 01:08:54;;;;;;;21.48;11.90;;;;;;;17.02;78.00;100278.19;5142859;27;20236;-72
2022/04/29 01:11:24;;;;;;;18.35;12.23;;;;;;;17.02;77.75;100280.84;5140962;27;20369;-73
2022/04/29 01:13:51;;;;;;;16.38;11.00;;;;;;;16.96;77.53;100281.63;5138027;27;20214;-71
2022/04/29 01:16:18;;;;;;;23.23;12.65;;;;;;;16.84;78.51;100275.94;5138563;27;20082;-73
2022/04/29 01:18:45;;;;;;;19.02;11.40;;;;;;;16.92;78.42;100283.84;5138198;27;20039;-71
2022/04/29 01:21:10;;;;;;;17.42;11.55;;;;;;;16.75;78.80;100277.06;5119134;27;20023;-73
2022/04/29 01:23:36;;;;;;;22.52;13.27;;;;;;;16.66;80.79;100278.22;5120283;27;20257;-73
2022/04/29 01:26:02;;;;;;;23.42;14.32;;;;;;;16.53;81.59;100270.78;5119718;27;20035;-73
2022/04/29 01:28:31;;;;;;;25.48;14.07;;;;;;;16.51;81.08;100276.34;5120724;27;20053;-73
2022/04/29 01:30:58;;;;;;;24.20;14.20;;;;;;;16.45;81.88;100284.28;5119326;27;20098;-71
2022/04/29 01:33:28;;;;;;;21.45;13.57;;;;;;;16.46;81.98;100272.56;5137108;27;20030;-71
2022/04/29 01:35:54;;;;;;;22.08;14.35;;;;;;;16.48;81.54;100279.38;5135418;27;20031;-72
2022/04/29 01:38:20;;;;;;;20.02;13.80;;;;;;;16.56;80.87;100281.94;5122137;28;20254;-71
2022/04/29 01:40:45;;;;;;;21.58;14.38;;;;;;;16.73;79.66;100271.09;5142217;27;20091;-71
2022/04/29 01:43:11;;;;;;;22.48;15.32;;;;;;;16.59;79.92;100275.41;5137980;27;20019;-73
2022/04/29 01:45:36;;;;;;;24.23;14.35;;;;;;;16.57;79.99;100259.53;5137581;27;20047;-71
2022/04/29 01:48:02;;;;;;;22.88;15.00;;;;;;;16.59;79.07;100257.50;5138118;28;20042;-72
2022/04/29 01:50:27;;;;;;;20.55;15.40;;;;;;;16.50;79.75;100250.63;5137486;28;20037;-72
2022/04/29 01:52:53;;;;;;;22.42;14.52;;;;;;;16.60;79.88;100253.81;5138778;28;20031;-72
2022/04/29 01:55:18;;;;;;;21.92;14.45;;;;;;;16.44;79.67;100243.34;5137570;28;20209;-73
2022/04/29 01:57:48;;;;;;;22.95;14.05;;;;;;;16.53;79.16;100238.72;5138148;28;20035;-72
2022/04/29 02:00:16;;;;;;;21.20;13.95;;;;;;;16.64;78.43;100254.28;5138993;28;20349;-73
2022/04/29 02:02:43;;;;;;;21.48;14.10;;;;;;;16.66;78.41;100256.81;5119279;28;20022;-72
2022/04/29 02:05:08;;;;;;;22.88;14.70;;;;;;;16.62;78.32;100253.63;5116302;28;20031;-72
2022/04/29 02:07:34;;;;;;;25.63;15.23;;;;;;;16.55;78.79;100260.75;5138227;28;20031;-72
2022/04/29 02:09:59;;;;;;;21.58;14.57;;;;;;;16.57;79.25;100262.22;5137274;28;20031;-73
2022/04/29 02:12:25;;;;;;;23.58;14.90;;;;;;;16.58;79.13;100253.19;5138674;28;20031;-73
2022/04/29 02:14:50;;;;;;;21.73;14.38;;;;;;;16.68;78.45;100260.97;5137088;28;20027;-73
2022/04/29 02:17:16;;;;;;;22.95;13.88;;;;;;;16.62;77.90;100256.31;5119399;28;20053;-73
2022/04/29 02:19:42;;;;;;;19.55;13.82;;;;;;;16.64;78.45;100272.16;5138104;28;20035;-72
2022/04/29 02:22:08;;;;;;;22.67;13.05;;;;;;;16.65;78.23;100264.00;5137114;28;20068;-73
2022/04/29 02:24:34;;;;;;;23.98;13.70;;;;;;;16.76;77.94;100273.38;5138601;28;20034;-73
2022/04/29 02:27:00;;;;;;;24.63;14.18;;;;;;;16.63;78.63;100271.31;5136667;28;20043;-71
2022/04/29 02:29:29;;;;;;;18.58;13.13;;;;;;;16.51;78.71;100264.81;5137072;28;20030;-73
2022/04/29 02:31:56;;;;;;;20.17;13.25;;;;;;;16.49;79.14;100269.50;5141565;28;20217;-71
2022/04/29 02:34:23;;;;;;;23.85;14.25;;;;;;;16.55;77.87;100263.41;5141372;28;20270;-73
2022/04/29 02:36:48;;;;;;;23.80;12.95;;;;;;;16.47;77.34;100253.66;5136976;28;20241;-72
2022/04/29 02:39:14;;;;;;;24.08;14.82;;;;;;;16.49;77.63;100269.50;5136809;28;20038;-73
2022/04/29 02:41:40;;;;;;;22.02;13.63;;;;;;;16.35;78.84;100270.38;5119881;28;20094;-73
2022/04/29 02:44:05;;;;;;;22.98;14.60;;;;;;;16.31;79.07;100280.59;5136814;28;20051;-72
2022/04/29 02:46:31;;;;;;;24.63;15.43;;;;;;;16.36;78.25;100272.03;5137535;28;20241;-73
2022/04/29 02:48:57;;;;;;;23.58;14.65;;;;;;;16.42;78.25;100282.81;5119103;28;20054;-71
2022/04/29 02:51:22;;;;;;;28.13;14.90;;;;;;;16.22;79.16;100289.72;5136449;28;20053;-71
2022/04/29 02:53:48;;;;;;;26.77;14.48;;;;;;;16.26;79.43;100293.69;5138948;27;20329;-72
2022/04/29 02:56:13;;;;;;;26.25;15.23;;;;;;;16.20;79.65;100289.91;5140432;27;20027;-73
2022/04/29 02:58:38;;;;;;;24.58;15.00;;;;;;;16.02;80.09;100276.09;5123260;27;20029;-73
2022/04/29 03:01:04;;;;;;;22.02;14.45;;;;;;;16.09;79.97;100297.56;5141619;27;20029;-71
2022/04/29 03:03:29;;;;;;;22.65;14.10;;;;;;;16.10;78.99;100293.88;5140407;27;20063;-73
2022/04/29 03:05:56;;;;;;;27.55;14.75;;;;;;;16.23;78.58;100291.41;5141918;27;20031;-72
2022/04/29 03:08:21;;;;;;;23.67;14.77;;;;;;;16.22;78.79;100292.41;5140692;27;20431;-72
2022/04/29 03:10:47;;;;;;;22.30;14.77;;;;;;;16.25;78.16;100303.56;5121535;27;20252;-72
2022/04/29 03:13:13;;;;;;;29.17;15.38;;;;;;;16.32;77.94;100309.00;5143114;27;20082;-73
2022/04/29 03:15:39;;;;;;;25.08;14.90;;;;;;;16.24;78.13;100304.56;5144950;27;20026;-71
2022/04/29 03:18:22;;;;;;;23.67;14.95;;;;;;;16.32;77.54;100306.31;5142365;27;20337;-73
2022/04/29 03:20:51;;;;;;;24.92;15.45;;;;;;;16.20;77.98;100311.28;5121381;27;20100;-71
2022/04/29 03:23:16;;;;;;;21.48;14.95;;;;;;;16.16;77.70;100307.34;5122338;27;20011;-72
2022/04/29 03:25:42;;;;;;;24.80;15.75;;;;;;;16.14;77.61;100308.53;5123034;27;20053;-73
2022/04/29 03:28:08;;;;;;;24.73;14.80;;;;;;;16.04;78.19;100307.97;5144430;27;20031;-73
2022/04/29 03:30:35;;;;;;;24.85;15.25;;;;;;;16.09;77.88;100316.28;5141619;27;20042;-72
2022/04/29 03:33:04;;;;;;;22.02;14.50;;;;;;;16.10;77.94;100313.41;5137868;27;20031;-71
2022/04/29 03:35:30;;;;;;;21.38;14.40;;;;;;;16.08;78.06;100314.63;5139987;27;20019;-73
2022/04/29 03:37:56;;;;;;;24.70;15.27;;;;;;;16.12;78.23;100315.91;5140121;27;20098;-71
2022/04/29 03:40:23;;;;;;;25.08;15.98;;;;;;;16.11;77.84;100319.59;5142217;27;20027;-73
2022/04/29 03:42:54;;;;;;;21.73;15.25;;;;;;;16.21;77.11;100320.13;5141503;27;20027;-71
2022/04/29 03:45:25;;;;;;;26.60;15.02;;;;;;;16.22;77.02;100321.81;5143646;27;20113;-71
2022/04/29 03:47:51;;;;;;;25.58;16.05;;;;;;;16.14;77.18;100325.41;5141567;27;20031;-74
2022/04/29 03:50:17;;;;;;;26.33;16.08;;;;;;;16.16;77.94;100317.19;5140731;27;20043;-72
2022/04/29 03:52:45;;;;;;;25.88;15.85;;;;;;;16.24;77.67;100325.13;5143381;27;20099;-71
2022/04/29 03:55:12;;;;;;;25.13;15.93;;;;;;;16.27;77.45;100328.25;5125471;27;20039;-72
2022/04/29 03:57:37;;;;;;;24.40;16.23;;;;;;;16.38;76.75;100321.59;5120962;27;20301;-71
2022/04/29 04:00:04;;;;;;;21.92;15.32;;;;;;;16.40;76.32;100319.59;5141226;27;20064;-71
2022/04/29 04:02:29;;;;;;;25.17;15.18;;;;;;;16.39;76.28;100325.09;5121048;27;20101;-72
2022/04/29 04:04:55;;;;;;;22.98;15.68;;;;;;;16.36;76.31;100328.97;5138980;27;20041;-72
2022/04/29 04:07:21;;;;;;;22.55;14.50;;;;;;;16.29;76.83;100326.22;5139728;27;20102;-73
2022/04/29 04:09:47;;;;;;;20.63;14.73;;;;;;;16.45;76.06;100327.03;5142601;27;20031;-73
2022/04/29 04:12:13;;;;;;;25.60;14.20;;;;;;;16.22;76.16;100327.97;5125274;27;20022;-71
2022/04/29 04:14:38;;;;;;;21.77;14.50;;;;;;;16.16;76.94;100328.72;5140060;27;20035;-72
2022/04/29 04:17:04;;;;;;;23.20;14.43;;;;;;;16.29;76.40;100320.88;5138803;27;20020;-73
2022/04/29 04:19:29;;;;;;;20.10;13.40;;;;;;;16.53;75.09;100332.28;5139097;27;20015;-72
2022/04/29 04:21:54;;;;;;;25.20;14.52;;;;;;;16.58;75.34;100330.72;5140171;27;20011;-73
2022/04/29 04:24:20;;;;;;;27.42;14.55;;;;;;;16.66;74.66;100331.69;5124305;27;20090;-73
2022/04/29 04:26:45;;;;;;;22.65;14.63;;;;;;;16.69;75.09;100328.63;5143322;27;20082;-73
2022/04/29 04:29:11;;;;;;;22.30;14.68;;;;;;;16.63;74.91;100337.34;5121966;27;20102;-72
2022/04/29 04:31:37;;;;;;;21.13;14.10;;;;;;;16.74;73.73;100335.06;5125179;27;20034;-73
2022/04/29 04:34:49;;;;;;;22.75;13.90;;;;;;;16.82;72.82;100323.44;5141854;27;20023;-72
2022/04/29 04:36:54;;;;;;;24.83;15.95;;;;;;;16.90;73.48;100344.72;5138179;27;20031;-71
2022/04/29 04:39:21;;;;;;;24.90;15.68;;;;;;;16.99;73.11;100340.91;5138580;27;20038;-71
2022/04/29 04:41:46;;;;;;;23.60;15.55;;;;;;;17.18;71.89;100336.78;5139362;27;20023;-73
2022/04/29 04:44:12;;;;;;;21.45;13.90;;;;;;;17.16;71.29;100344.19;5138200;27;20092;-72
2022/04/29 04:46:38;;;;;;;21.63;15.90;;;;;;;16.98;71.63;100346.47;5137812;27;20177;-73
2022/04/29 04:49:04;;;;;;;18.67;13.77;;;;;;;16.91;71.45;100322.31;5126983;27;20225;-72
2022/04/29 04:51:29;;;;;;;22.48;14.73;;;;;;;17.07;71.30;100331.94;5120601;27;20099;-73
2022/04/29 04:53:55;;;;;;;20.65;13.85;;;;;;;17.17;70.55;100349.34;5120801;27;20047;-72
2022/04/29 04:56:20;;;;;;;18.80;13.93;;;;;;;17.30;70.36;100340.63;5122681;27;20058;-71
2022/04/29 04:58:45;;;;;;;21.10;14.10;;;;;;;17.44;69.69;100345.06;5122292;27;20027;-71
2022/04/29 05:01:11;;;;;;;21.45;13.27;;;;;;;17.70;68.13;100346.41;5123746;27;20080;-74
2022/04/29 05:03:37;;;;;;;16.95;12.65;;;;;;;17.99;65.98;100350.72;5122510;27;20149;-73
2022/04/29 05:06:02;;;;;;;21.25;13.38;;;;;;;18.01;65.43;100335.28;5108263;28;20030;-73
2022/04/29 05:08:28;;;;;;;16.98;12.95;;;;;;;18.19;64.31;100339.13;5108721;27;20097;-73
2022/04/29 05:10:53;;;;;;;21.23;13.57;;;;;;;18.21;65.23;100341.59;5115795;27;20049;-73
2022/04/29 05:13:19;;;;;;;23.48;14.10;;;;;;;18.47;63.90;100339.06;5108221;28;20020;-73
2022/04/29 05:15:44;;;;;;;20.13;13.07;;;;;;;18.71;62.85;100343.13;5109541;28;20030;-71
2022/04/29 05:18:10;;;;;;;24.55;14.32;;;;;;;19.01;61.39;100340.16;5121058;28;20108;-71
2022/04/29 05:20:35;;;;;;;19.55;13.88;;;;;;;19.13;60.18;100343.91;5117192;27;20087;-72
2022/04/29 05:23:01;;;;;;;19.92;13.45;;;;;;;19.38;59.12;100350.34;5120230;27;20035;-72
2022/04/29 05:25:26;;;;;;;22.45;14.23;;;;;;;19.65;58.77;100353.09;5122532;27;20049;-73
2022/04/29 05:27:52;;;;;;;17.73;13.20;;;;;;;19.88;56.60;100342.78;5123458;27;20088;-74
2022/04/29 05:30:17;;;;;;;18.77;12.38;;;;;;;19.75;57.15;100345.44;5122487;27;20039;-75
2022/04/29 05:32:43;;;;;;;18.25;12.27;;;;;;;19.97;56.20;100344.22;5121331;27;20340;-74
2022/04/29 05:35:09;;;;;;;19.85;13.43;;;;;;;20.11;54.74;100346.88;5121044;27;20024;-74
2022/04/29 05:37:37;;;;;;;20.90;13.15;;;;;;;20.27;54.26;100354.50;5121387;28;20245;-75
2022/04/29 05:42:48;;;;;;;17.10;13.20;;;;;;;20.38;53.61;100361.94;5123092;28;20041;-75
2022/04/29 05:45:13;;;;;;;15.88;12.75;;;;;;;20.04;54.66;100357.66;5110080;28;20044;-74
2022/04/29 05:47:39;;;;;;;18.58;13.27;;;;;;;19.70;55.43;100350.59;5122050;28;20094;-75
2022/04/29 05:50:05;;;;;;;21.10;13.35;;;;;;;19.72;55.90;100352.06;5108543;28;20034;-74
2022/04/29 05:52:31;;;;;;;22.98;14.80;;;;;;;19.54;56.94;100326.84;5122404;28;20032;-75
2022/04/29 05:54:56;;;;;;;26.23;14.65;;;;;;;20.02;55.59;100354.34;5120825;28;20050;-74
2022/04/29 05:57:22;;;;;;;21.63;14.38;;;;;;;20.59;53.92;100352.78;5122120;28;20156;-74
2022/04/29 05:59:47;;;;;;;19.65;13.75;;;;;;;21.07;52.97;100345.16;5120654;28;20320;-74
2022/04/29 06:02:13;;;;;;;20.08;13.48;;;;;;;21.39;50.70;100359.47;5120608;28;20034;-75
2022/04/29 06:04:38;;;;;;;18.48;13.35;;;;;;;21.47;49.66;100359.22;5121873;28;20052;-75
2022/04/29 06:07:04;;;;;;;19.77;13.02;;;;;;;20.99;51.26;100365.06;5123110;28;20027;-75
2022/04/29 06:09:29;;;;;;;19.38;13.70;;;;;;;21.10;51.18;100368.13;5120721;28;20055;-74
2022/04/29 06:11:55;;;;;;;21.00;13.45;;;;;;;21.47;50.14;100363.78;5119431;28;20023;-74
2022/04/29 06:14:20;;;;;;;21.33;13.38;;;;;;;21.47;49.62;100361.91;5106239;28;20255;-74
2022/04/29 06:16:46;;;;;;;21.35;14.25;;;;;;;21.87;49.58;100345.44;5121327;28;20099;-76
2022/04/29 06:19:12;;;;;;;21.13;13.40;;;;;;;21.75;49.24;100366.88;5119748;28;20186;-75
2022/04/29 06:21:40;;;;;;;20.15;13.15;;;;;;;21.20;50.00;100355.84;5119682;28;20043;-74
2022/04/29 06:24:07;;;;;;;17.70;12.70;;;;;;;21.33;49.90;100358.47;5119679;28;20049;-74
2022/04/29 06:26:32;;;;;;;18.30;13.07;;;;;;;21.43;50.12;100362.56;5122182;28;20028;-74
2022/04/29 06:28:58;;;;;;;22.40;13.20;;;;;;;21.21;49.97;100362.88;5121978;27;20045;-75
2022/04/29 06:31:23;;;;;;;20.65;12.82;;;;;;;21.79;50.05;100360.00;5113686;27;20033;-75
2022/04/29 06:33:49;;;;;;;21.02;12.30;;;;;;;21.94;48.80;100365.09;5124704;27;20047;-75
2022/04/29 06:36:15;;;;;;;20.20;13.38;;;;;;;22.02;48.63;100364.81;5124741;27;20034;-75
2022/04/29 06:38:40;;;;;;;20.83;13.07;;;;;;;21.47;49.14;100350.31;5124676;27;20032;-74
2022/04/29 06:41:06;;;;;;;20.58;13.07;;;;;;;21.48;49.41;100366.25;5122847;27;20035;-74
2022/04/29 06:43:32;;;;;;;24.15;13.25;;;;;;;21.47;49.07;100377.25;5124137;27;20199;-75
2022/04/29 06:45:59;;;;;;;20.15;13.20;;;;;;;20.86;51.10;100369.69;5123590;27;20061;-74
2022/04/29 06:48:24;;;;;;;16.95;12.48;;;;;;;20.98;51.59;100373.34;5123811;27;20241;-74
2022/04/29 06:50:50;;;;;;;21.65;12.85;;;;;;;21.08;51.97;100365.63;5126198;27;20027;-75
2022/04/29 06:53:15;;;;;;;17.15;12.25;;;;;;;21.27;51.94;100375.50;5123530;27;20043;-75
2022/04/29 06:55:41;;;;;;;17.35;11.90;;;;;;;21.79;50.50;100369.94;5123707;27;20047;-74
2022/04/29 06:58:07;;;;;;;16.23;12.45;;;;;;;22.10;49.56;100369.94;5122632;27;20040;-74
2022/04/29 07:00:33;;;;;;;18.55;12.48;;;;;;;21.60;49.50;100337.56;5109547;28;20100;-74
2022/04/29 07:03:03;;;;;;;19.52;12.80;;;;;;;21.79;49.75;100369.94;5122985;27;20046;-75
2022/04/29 07:05:33;;;;;;;17.58;12.63;;;;;;;21.92;48.87;100378.78;5123812;27;20205;-74
2022/04/29 07:07:59;;;;;;;17.83;12.77;;;;;;;22.05;48.97;100377.06;5123359;27;20353;-74
2022/04/29 07:10:25;;;;;;;15.27;11.93;;;;;;;22.43;48.03;100369.59;5106293;28;20024;-75
2022/04/29 07:12:51;;;;;;;25.45;12.65;;;;;;;22.69;46.26;100375.75;5134824;27;20032;-75
2022/04/29 07:15:17;;;;;;;15.07;11.18;;;;;;;22.92;45.77;100371.38;5132491;27;20076;-74
2022/04/29 07:17:43;;;;;;;18.35;11.82;;;;;;;23.20;44.90;100370.78;5133132;27;20311;-75
2022/04/29 07:20:13;;;;;;;22.73;11.95;;;;;;;23.35;44.30;100342.50;5111032;27;20019;-73
2022/04/29 07:22:40;;;;;;;17.50;11.48;;;;;;;23.24;44.59;100368.44;5114723;27;20405;-73
2022/04/29 07:25:12;;;;;;;20.67;12.05;;;;;;;22.57;45.45;100370.28;5131395;27;20051;-72
2022/04/29 07:27:40;;;;;;;20.00;12.13;;;;;;;22.31;45.72;100379.50;5132830;27;20042;-72
2022/04/29 07:30:08;;;;;;;16.88;10.93;;;;;;;22.88;45.73;100378.22;5110345;27;20332;-72
2022/04/29 07:32:34;;;;;;;15.23;10.95;;;;;;;23.21;43.65;100380.53;5121449;27;20043;-73
2022/04/29 07:43:13;;;;;;;16.95;10.45;;;;;;;24.29;40.76;100378.66;5132805;27;20338;-71
2022/04/29 07:45:40;;;;;;;14.65;10.25;;;;;;;24.23;40.88;100377.69;5129033;27;20056;-73
2022/04/29 07:48:06;;;;;;;14.98;10.30;;;;;;;24.50;40.19;100378.06;5130904;27;20031;-72
2022/04/29 07:50:33;;;;;;;15.85;10.68;;;;;;;24.96;39.29;100376.28;5132929;27;20035;-73
2022/04/29 07:53:00;;;;;;;19.25;11.25;;;;;;;25.25;38.76;100364.44;5130638;27;20043;-74
2022/04/29 07:55:26;;;;;;;14.50;10.60;;;;;;;25.34;38.09;100368.41;5133605;27;20259;-72
2022/04/29 07:57:52;;;;;;;14.77;11.50;;;;;;;25.02;38.99;100361.84;5129882;27;20027;-73
2022/04/29 08:00:19;;;;;;;14.48;10.85;;;;;;;24.69;40.04;100376.84;5128210;27;20027;-71
2022/04/29 08:02:44;;;;;;;14.75;11.25;;;;;;;24.59;40.77;100364.97;5129044;27;20026;-72
2022/04/29 08:05:10;;;;;;;14.75;10.60;;;;;;;24.51;40.16;100358.03;5129880;27;20036;-73
2022/04/29 08:07:36;;;;;;;16.38;11.18;;;;;;;24.62;40.04;100345.53;5112382;27;20027;-72
2022/04/29 08:10:03;;;;;;;17.48;10.68;;;;;;;24.76;40.12;100338.78;5129252;27;20023;-72
2022/04/29 08:12:28;;;;;;;15.48;10.95;;;;;;;25.27;40.44;100354.19;5134005;27;20026;-72
2022/04/29 08:14:56;;;;;;;16.65;10.48;;;;;;;25.85;38.52;100365.75;5129066;27;20036;-72
2022/04/29 08:17:23;;;;;;;15.70;10.23;;;;;;;25.73;38.36;100360.41;5134355;27;20335;-72
2022/04/29 08:19:49;;;;;;;18.88;10.82;;;;;;;25.50;38.89;100357.81;5128229;27;20039;-72
2022/04/29 08:22:15;;;;;;;12.52;9.52;;;;;;;25.70;38.37;100363.63;5115528;27;20020;-73
2022/04/29 08:24:42;;;;;;;12.63;8.05;;;;;;;25.74;37.78;100359.34;5133679;27;20042;-73
2022/04/29 08:27:07;;;;;;;11.60;8.38;;;;;;;26.08;38.41;100362.88;5135396;27;20102;-72
2022/04/29 08:29:33;;;;;;;15.55;9.60;;;;;;;26.30;38.00;100368.34;5107984;27;20238;-72
2022/04/29 08:31:59;;;;;;;14.45;10.27;;;;;;;26.00;37.88;100368.69;5128616;27;20043;-73
2022/04/29 08:34:25;;;;;;;13.23;10.48;;;;;;;26.16;38.10;100357.03;5133762;27;20036;-73
2022/04/29 08:36:51;;;;;;;14.88;9.82;;;;;;;26.21;38.17;100357.09;5130114;27;20019;-73
2022/04/29 08:39:17;;;;;;;15.45;9.40;;;;;;;25.16;38.87;100360.47;5133027;27;20260;-72
2022/04/29 08:41:42;;;;;;;13.30;9.13;;;;;;;25.06;39.10;100352.16;5130123;27;20023;-72
2022/04/29 08:44:13;;;;;;;12.82;9.23;;;;;;;24.58;40.45;100347.91;5131563;27;20253;-72
2022/04/29 08:46:40;;;;;;;15.27;9.52;;;;;;;24.15;42.02;100354.53;5129781;27;20039;-72
2022/04/29 08:49:07;;;;;;;10.90;9.48;;;;;;;24.22;41.92;100351.69;5129070;27;20212;-72
2022/04/29 08:51:34;;;;;;;13.90;10.10;;;;;;;24.25;41.69;100345.81;5114970;27;20019;-73
2022/04/29 08:54:01;;;;;;;17.13;9.95;;;;;;;24.64;41.78;100341.53;5115000;27;20198;-72
2022/04/29 08:59:12;;;;;;;14.63;9.55;;;;;;;25.11;40.45;100338.69;5128914;27;20095;-72
2022/04/29 09:01:40;;;;;;;11.85;9.00;;;;;;;25.40;39.51;100336.78;5134204;27;20022;-72
2022/04/29 09:04:06;;;;;;;12.15;9.05;;;;;;;25.68;39.17;100333.19;5127955;27;20248;-73
2022/04/29 09:06:32;;;;;;;12.07;9.35;;;;;;;25.73;38.67;100325.97;5134729;27;20046;-73
2022/04/29 09:09:08;;;;;;;13.80;9.73;;;;;;;25.90;37.92;100334.09;5113998;27;20229;-72
2022/04/29 09:11:34;;;;;;;15.05;9.23;;;;;;;26.08;37.93;100333.03;5114132;27;20043;-73
2022/04/29 09:14:21;;;;;;;15.80;10.50;;;;;;;25.78;39.12;100330.66;5127986;27;20035;-72
2022/04/29 09:16:48;;;;;;;12.15;9.20;;;;;;;25.66;37.53;100336.16;5130852;27;20064;-72
2022/04/29 09:19:30;;;;;;;14.45;9.40;;;;;;;25.68;38.10;100319.63;5125737;27;20208;-72
2022/04/29 09:22:23;;;;;;;11.63;10.40;;;;;;;25.34;38.29;100319.59;5108193;27;20044;-73
2022/04/29 09:25:00;;;;;;;16.95;11.43;;;;;;;24.76;39.50;100309.81;5103618;28;20043;-72
2022/04/29 09:27:25;;;;;;;14.88;9.88;;;;;;;24.82;39.85;100321.56;5128424;27;20103;-73
2022/04/29 09:29:59;;;;;;;12.07;8.95;;;;;;;24.76;40.33;100309.81;5132063;27;20206;-72
2022/04/29 09:32:24;;;;;;;18.05;10.02;;;;;;;24.33;40.35;100318.41;5128412;27;20028;-72
2022/04/29 09:34:54;;;;;;;12.63;9.48;;;;;;;24.05;40.82;100315.59;5130079;27;20031;-72
2022/04/29 09:37:27;;;;;;;15.85;9.93;;;;;;;23.77;42.41;100313.56;5131818;27;20054;-73
2022/04/29 09:40:00;;;;;;;10.35;8.90;;;;;;;24.03;41.41;100315.84;5129626;27;20076;-72
2022/04/29 09:42:45;;;;;;;11.70;9.30;;;;;;;24.24;40.84;100303.56;5129185;27;20142;-72
2022/04/29 09:45:24;;;;;;;17.15;9.77;;;;;;;24.26;41.23;100287.09;5128348;28;20031;-74
2022/04/29 09:47:54;;;;;;;11.82;8.48;;;;;;;24.41;39.92;100300.97;5129341;27;20304;-73
2022/04/29 09:50:19;;;;;;;13.35;9.77;;;;;;;24.23;42.13;100310.03;5130244;27;20366;-72
2022/04/29 09:52:45;;;;;;;11.38;9.00;;;;;;;23.94;41.57;100302.91;5128182;28;20028;-73
2022/04/29 09:55:18;;;;;;;13.88;10.13;;;;;;;24.38;41.18;100301.44;5132670;28;20038;-73
2022/04/29 09:57:46;;;;;;;15.23;9.60;;;;;;;24.13;40.13;100297.13;5128542;28;20027;-73
2022/04/29 10:00:12;;;;;;;13.02;9.52;;;;;;;23.19;42.41;100298.06;5116475;28;20341;-72
2022/04/29 10:02:38;;;;;;;15.50;11.43;;;;;;;22.97;43.22;100300.47;5132187;27;20076;-73
2022/04/29 10:05:04;;;;;;;13.02;10.10;;;;;;;23.04;42.42;100297.66;5124004;27;20341;-72
2022/04/29 10:07:33;;;;;;;20.45;12.05;;;;;;;22.91;44.08;100288.69;5133680;27;20015;-73
2022/04/29 10:09:59;;;;;;;13.77;9.90;;;;;;;22.60;43.56;100300.47;5117353;28;20032;-72
2022/04/29 10:12:27;;;;;;;14.63;10.50;;;;;;;22.60;43.62;100292.38;5133233;27;20085;-72
2022/04/29 10:15:00;;;;;;;21.58;12.55;;;;;;;22.39;45.08;100283.94;5137198;27;20088;-73
2022/04/29 10:23:11;;;;;;;13.90;9.63;;;;;;;23.02;43.43;100268.19;5129724;27;20030;-71
2022/04/29 10:25:42;;;;;;;14.45;10.02;;;;;;;22.85;43.55;100257.19;5134131;27;20039;-73
2022/04/29 10:28:09;;;;;;;14.30;9.85;;;;;;;22.86;42.68;100275.03;5132225;27;20038;-72
2022/04/29 10:30:39;;;;;;;15.90;10.02;;;;;;;23.12;43.70;100275.72;5133530;27;20055;-73
2022/04/29 10:33:06;;;;;;;12.07;9.48;;;;;;;23.24;43.19;100272.00;5120272;27;20011;-72
2022/04/29 10:35:58;;;;;;;19.75;9.75;;;;;;;23.73;41.63;100264.53;5131984;27;20034;-72
2022/04/29 10:38:31;;;;;;;12.48;8.63;;;;;;;23.92;41.10;100264.41;5131634;27;20034;-73
2022/04/29 10:41:18;;;;;;;15.13;9.38;;;;;;;24.14;41.21;100263.59;5132049;27;20279;-72
2022/04/29 10:44:02;;;;;;;15.82;9.75;;;;;;;24.37;40.91;100264.63;5133824;27;20036;-73
2022/04/29 10:46:27;;;;;;;;;;;;;;;24.36;39.61;100269.22;5137242;27;20054;-73
2022/04/29 10:48:54;;;;;;;13.15;9.15;;;;;;;23.80;40.89;100265.25;5131820;27;19954;-73
2022/04/29 10:51:25;;;;;;;13.95;10.15;;;;;;;24.05;40.45;100262.31;5135843;27;20319;-72
2022/04/29 10:53:53;;;;;;;12.98;9.10;;;;;;;24.35;40.98;100255.91;5119173;27;20047;-73
2022/04/29 10:56:30;;;;;;;16.77;9.15;;;;;;;24.41;39.59;100258.50;5132418;27;20043;-73
2022/04/29 10:59:05;;;;;;;12.13;9.38;;;;;;;24.55;39.22;100250.91;5131921;27;20023;-74
2022/04/29 11:01:35;;;;;;;14.15;9.75;;;;;;;24.31;40.03;100250.16;5131851;27;20093;-73
2022/04/29 11:04:01;;;;;;;19.80;9.65;;;;;;;23.74;41.27;100236.44;5136233;27;20303;-74
2022/04/29 11:06:38;;;;;;;12.90;9.10;;;;;;;23.62;40.00;100254.56;5115972;27;20023;-72
2022/04/29 11:09:45;;;;;;;11.45;9.40;;;;;;;23.84;40.28;100236.66;5132884;27;20058;-72
2022/04/29 11:12:38;;;;;;;14.23;7.88;;;;;;;24.07;38.38;100243.13;5121730;27;20031;-73
2022/04/29 11:15:11;;;;;;;21.05;8.73;;;;;;;24.10;39.65;100248.88;5115809;28;20036;-73
2022/04/29 11:17:38;;;;;;;12.38;8.15;;;;;;;24.30;38.29;100245.81;5109260;27;20380;-73
2022/04/29 11:20:33;;;;;;;11.25;8.93;;;;;;;23.75;40.33;100239.97;5124213;27;20218;-72
2022/04/29 11:25:49;;;;;;;9.93;7.45;;;;;;;23.83;38.80;100243.13;5124971;27;20098;-72
2022/04/29 11:28:16;;;;;;;12.75;8.05;;;;;;;23.75;40.30;100240.78;5124566;27;20031;-72
2022/04/29 11:30:42;;;;;;;16.33;9.02;;;;;;;23.70;41.84;100245.25;5121945;27;20040;-72
2022/04/29 11:33:07;;;;;;;13.38;9.13;;;;;;;23.78;40.49;100250.31;5122532;27;20023;-73
2022/04/29 11:35:33;;;;;;;13.45;8.35;;;;;;;23.81;40.23;100239.84;5125742;27;20194;-72